CheckWX is a tool to help pilots better visualize weather data.  It is not intended as a substitute for an official pre-flight weather briefing.

14:02:55 UTC

KAXX METAR
Angel Fire Airport
Angel Fire, New Mexico, USA
Current

8 mins ago

KAXX 211355Z AUTO 20004KT CLR 09/M02 A3028 RMK AO2 T00931021 PWINO
Observed
Sep-21 @ 13:55 UTC
Wind
  • 200° at 4 KTS
Visibility
Cloud Levels
  • Clear skies
Temperature
C / 48°F
Dewpoint
-2°C / 28°F
Humidity
46%
Altimeter
30.28" Hg
Pressure
1025.42 hPa
Previous

20 hours ago

KAXX 201810Z AUTO 27021G30KT SCT060 SCT075 19/01 A3021 RMK AO2 T01880006 PWINO
Observed
Sep-20 @ 18:10 UTC
Wind
  • 270° at 21 KTS
  • Gusting to 30 KTS
Visibility
Cloud Levels
  • Scattered at 6,000' AGL
  • Scattered at 7,500' AGL
Temperature
19°C / 66°F
Dewpoint
C / 34°F
Humidity
30%
Altimeter
30.21" Hg
Pressure
1023.02 hPa
Previous

20 hours ago

KAXX 201755Z AUTO 22020G28KT SCT060 SCT085 18/02 A3021 RMK AO2 T01810018 10182 20075 PWINO
Observed
Sep-20 @ 17:55 UTC
Wind
  • 220° at 20 KTS
  • Gusting to 28 KTS
Visibility
Cloud Levels
  • Scattered at 6,000' AGL
  • Scattered at 8,500' AGL
Temperature
18°C / 64°F
Dewpoint
C / 36°F
Humidity
34%
Altimeter
30.21" Hg
Pressure
1023.02 hPa